createdAt,value
2022-07-31T00:02:51.368Z,9.40
2022-07-31T00:07:47.639Z,9.88
2022-07-31T00:12:43.859Z,10.82
2022-07-31T00:17:40.618Z,8.23
2022-07-31T00:22:36.933Z,9.80
2022-07-31T00:27:33.307Z,8.35
2022-07-31T00:32:29.546Z,9.73
2022-07-31T00:37:25.823Z,9.85
2022-07-31T00:42:23.041Z,8.13
2022-07-31T00:47:22.339Z,8.98
2022-07-31T00:52:21.953Z,8.15
2022-07-31T00:57:18.328Z,9.20
2022-07-31T01:02:14.633Z,10.98
2022-07-31T01:07:10.922Z,10.02
2022-07-31T01:12:09.973Z,12.15
2022-07-31T01:17:07.118Z,11.98
2022-07-31T01:22:33.155Z,10.55
2022-07-31T01:27:49.449Z,9.45
2022-07-31T01:32:50.459Z,10.52
2022-07-31T01:38:05.019Z,9.65
2022-07-31T01:43:22.210Z,10.40
2022-07-31T01:48:18.590Z,11.50
2022-07-31T01:53:19.939Z,9.98
2022-07-31T01:58:17.685Z,9.20
2022-07-31T02:03:14.646Z,9.88
2022-07-31T02:08:14.810Z,11.45
2022-07-31T02:13:12.716Z,10.02
2022-07-31T02:18:10.182Z,12.05
2022-07-31T02:23:06.596Z,10.00
2022-07-31T02:28:05.316Z,10.05
2022-07-31T02:33:03.570Z,10.30
2022-07-31T02:38:00.737Z,10.25
2022-07-31T02:42:57.214Z,9.85
2022-07-31T02:47:54.174Z,7.70
2022-07-31T02:52:51.100Z,8.70
2022-07-31T02:57:48.701Z,7.78
2022-07-31T03:02:44.964Z,7.68
2022-07-31T03:07:41.235Z,9.25
2022-07-31T03:12:39.764Z,9.07
2022-07-31T03:17:38.393Z,9.35
2022-07-31T03:22:37.600Z,9.82
2022-07-31T03:27:33.952Z,9.40
2022-07-31T03:32:30.542Z,9.45
2022-07-31T03:37:26.767Z,10.45
2022-07-31T03:42:23.748Z,10.32
2022-07-31T03:47:20.088Z,9.32
2022-07-31T03:52:16.450Z,9.52
2022-07-31T03:57:12.956Z,9.32
2022-07-31T04:02:11.904Z,9.32
2022-07-31T04:07:09.118Z,9.45
2022-07-31T04:12:06.051Z,9.65
2022-07-31T04:17:02.690Z,9.70
2022-07-31T04:21:59.508Z,8.77
2022-07-31T04:26:56.196Z,8.20
2022-07-31T04:31:52.445Z,8.43
2022-07-31T04:36:48.740Z,8.20
2022-07-31T04:41:45.071Z,8.02
2022-07-31T04:46:43.305Z,10.82
2022-07-31T04:51:39.895Z,10.00
2022-07-31T04:56:37.589Z,10.55
2022-07-31T05:01:34.311Z,9.25
2022-07-31T05:06:34.327Z,10.32
2022-07-31T05:11:30.913Z,11.57
2022-07-31T05:16:28.150Z,8.95
2022-07-31T05:21:26.881Z,9.45
2022-07-31T05:26:23.751Z,8.95
2022-07-31T05:31:20.493Z,9.00
2022-07-31T05:36:17.574Z,8.45
2022-07-31T05:41:14.171Z,10.40
2022-07-31T05:46:13.897Z,9.23
2022-07-31T05:51:10.852Z,7.72
2022-07-31T05:56:07.187Z,9.25
2022-07-31T06:01:03.877Z,9.52
2022-07-31T06:06:00.176Z,10.32
2022-07-31T06:10:56.514Z,10.10
2022-07-31T06:15:52.984Z,8.68
2022-07-31T06:20:49.430Z,7.35
2022-07-31T06:25:45.826Z,9.07
2022-07-31T06:30:43.946Z,7.20
2022-07-31T06:35:40.228Z,6.43
2022-07-31T06:40:36.495Z,5.25
2022-07-31T06:45:50.901Z,5.13
2022-07-31T06:50:48.676Z,4.22
2022-07-31T06:55:48.614Z,4.47
2022-07-31T07:00:44.903Z,4.38
2022-07-31T07:05:45.272Z,5.82
2022-07-31T07:10:41.782Z,3.30
2022-07-31T07:15:38.022Z,3.25
2022-07-31T07:20:34.267Z,4.50
2022-07-31T07:25:30.556Z,5.78
2022-07-31T07:30:28.576Z,7.03
2022-07-31T07:35:25.075Z,6.60
2022-07-31T07:40:21.428Z,8.02
2022-07-31T07:45:17.720Z,5.80
2022-07-31T07:50:15.579Z,5.57
2022-07-31T07:55:12.571Z,4.78
2022-07-31T08:00:10.735Z,4.18
2022-07-31T08:05:07.190Z,3.67
2022-07-31T08:10:04.487Z,4.20
2022-07-31T08:15:00.847Z,3.42
2022-07-31T08:19:57.118Z,4.57
2022-07-31T08:24:53.920Z,3.80
2022-07-31T08:29:50.628Z,4.15
2022-07-31T08:34:47.573Z,3.10
2022-07-31T08:39:43.808Z,3.10
2022-07-31T08:44:40.647Z,3.08
2022-07-31T08:49:39.653Z,3.70
2022-07-31T08:54:36.527Z,3.22
2022-07-31T08:59:32.876Z,3.58
2022-07-31T09:04:29.166Z,3.33
2022-07-31T09:09:26.036Z,3.13
2022-07-31T09:14:47.427Z,2.88
2022-07-31T09:19:52.928Z,2.73
2022-07-31T09:24:51.486Z,3.08
2022-07-31T09:29:49.444Z,3.15
2022-07-31T09:34:46.071Z,3.28
2022-07-31T09:39:52.303Z,2.38
2022-07-31T09:44:49.999Z,3.00
2022-07-31T09:49:51.808Z,2.60
2022-07-31T09:54:48.489Z,2.10
2022-07-31T09:59:44.852Z,2.20
2022-07-31T10:04:42.503Z,2.38
2022-07-31T10:09:39.560Z,2.03
2022-07-31T10:14:39.930Z,2.45
2022-07-31T10:19:37.661Z,2.50
2022-07-31T10:24:36.051Z,3.35
2022-07-31T10:29:33.412Z,2.35
2022-07-31T10:34:29.707Z,2.60
2022-07-31T10:39:31.385Z,2.40
2022-07-31T10:44:35.409Z,3.83
2022-07-31T10:49:44.734Z,3.15
2022-07-31T10:54:42.711Z,3.05
2022-07-31T10:59:42.960Z,3.42
2022-07-31T11:04:41.057Z,2.80
2022-07-31T11:09:51.250Z,2.42
2022-07-31T11:14:48.227Z,2.80
2022-07-31T11:19:44.554Z,2.33
2022-07-31T11:24:40.933Z,2.55
2022-07-31T11:29:58.992Z,2.85
2022-07-31T11:34:55.531Z,2.63
2022-07-31T11:39:52.902Z,2.55
2022-07-31T11:44:49.443Z,2.60
2022-07-31T11:49:49.016Z,3.25
2022-07-31T11:54:45.831Z,3.13
2022-07-31T11:59:46.326Z,3.33
2022-07-31T12:04:45.684Z,3.17
2022-07-31T12:10:00.269Z,3.08
2022-07-31T12:14:58.767Z,2.80
2022-07-31T12:19:57.972Z,3.05
2022-07-31T12:25:03.149Z,2.92
2022-07-31T12:30:17.989Z,2.83
2022-07-31T12:35:14.268Z,2.72
2022-07-31T12:40:20.896Z,2.67
2022-07-31T12:45:27.785Z,2.65
2022-07-31T12:50:24.908Z,2.58
2022-07-31T12:55:22.356Z,2.75
2022-07-31T13:00:23.467Z,3.00
2022-07-31T13:05:20.091Z,2.85
2022-07-31T13:10:21.302Z,3.42
2022-07-31T13:15:23.127Z,3.15
2022-07-31T13:20:19.408Z,3.03
2022-07-31T13:25:16.239Z,3.20
2022-07-31T13:30:14.111Z,3.17
2022-07-31T13:35:28.022Z,2.47
2022-07-31T13:40:44.536Z,2.72
2022-07-31T13:45:40.822Z,3.20
2022-07-31T13:50:37.545Z,3.22
2022-07-31T13:55:33.900Z,2.85
2022-07-31T14:00:30.714Z,2.97
2022-07-31T14:05:27.738Z,3.10
2022-07-31T14:10:24.168Z,3.03
2022-07-31T14:15:20.918Z,3.10
2022-07-31T14:20:17.237Z,3.47
2022-07-31T14:25:13.620Z,3.20
2022-07-31T14:30:10.344Z,3.08
2022-07-31T14:35:08.550Z,2.60
2022-07-31T14:40:05.424Z,2.95
2022-07-31T14:45:03.095Z,2.70
2022-07-31T14:50:07.588Z,3.10
2022-07-31T14:55:06.652Z,3.25
2022-07-31T15:00:03.657Z,2.50
2022-07-31T15:06:55.464Z,3.10
2022-07-31T15:10:16.298Z,2.53
2022-07-31T15:15:12.597Z,3.00
2022-07-31T15:20:09.099Z,3.90
2022-07-31T15:25:05.783Z,4.25
2022-07-31T15:30:06.857Z,3.38
2022-07-31T15:35:05.175Z,3.72
2022-07-31T15:40:03.747Z,4.75
2022-07-31T15:45:00.342Z,4.93
2022-07-31T15:49:56.613Z,5.10
2022-07-31T15:54:54.032Z,4.70
2022-07-31T15:59:50.997Z,5.20
2022-07-31T16:04:53.006Z,5.30
2022-07-31T16:10:03.472Z,4.88
2022-07-31T16:15:08.000Z,6.35
2022-07-31T16:20:08.884Z,6.68
2022-07-31T16:25:06.365Z,6.82
2022-07-31T16:30:03.289Z,7.68
2022-07-31T16:35:01.299Z,6.57
2022-07-31T16:39:59.682Z,6.03
2022-07-31T16:44:56.384Z,6.43
2022-07-31T16:49:53.212Z,6.68
2022-07-31T16:54:49.794Z,6.82
2022-07-31T16:59:56.473Z,7.72
2022-07-31T17:04:54.284Z,7.55
2022-07-31T17:09:50.566Z,7.13
2022-07-31T17:14:48.437Z,8.20
2022-07-31T17:19:47.423Z,8.85
2022-07-31T17:24:44.445Z,9.90
2022-07-31T17:29:40.716Z,9.75
2022-07-31T17:34:37.449Z,10.93
2022-07-31T17:39:33.775Z,9.55
2022-07-31T17:44:30.139Z,10.32
2022-07-31T17:49:27.978Z,8.95
2022-07-31T17:54:24.396Z,11.77
2022-07-31T17:59:20.778Z,13.13
2022-07-31T18:04:17.077Z,13.02
2022-07-31T18:09:14.283Z,12.48
2022-07-31T18:14:10.514Z,12.10
2022-07-31T18:19:07.864Z,12.18
2022-07-31T18:24:05.513Z,12.15
2022-07-31T18:29:01.900Z,11.02
2022-07-31T18:33:58.135Z,12.35
2022-07-31T18:38:54.486Z,11.43
2022-07-31T18:43:50.760Z,12.25
2022-07-31T18:48:50.741Z,12.80
2022-07-31T18:53:51.032Z,13.35
2022-07-31T18:58:47.270Z,12.07
2022-07-31T19:03:43.564Z,13.00
2022-07-31T19:08:39.921Z,14.27
2022-07-31T19:13:36.218Z,14.98
2022-07-31T19:18:32.451Z,16.17
2022-07-31T19:23:28.711Z,10.90
2022-07-31T19:28:26.636Z,10.00
2022-07-31T19:33:23.415Z,8.98
2022-07-31T19:38:19.668Z,9.20
2022-07-31T19:43:15.957Z,10.15
2022-07-31T19:48:16.643Z,9.45
2022-07-31T19:53:13.177Z,10.75
2022-07-31T19:58:09.460Z,8.20
2022-07-31T20:03:05.758Z,8.00
2022-07-31T20:08:02.049Z,8.80
2022-07-31T20:12:58.329Z,8.35
2022-07-31T20:17:54.583Z,6.13
2022-07-31T20:22:50.939Z,6.18
2022-07-31T20:27:47.631Z,6.50
2022-07-31T20:32:48.636Z,4.70
2022-07-31T20:37:45.582Z,4.10
2022-07-31T20:42:41.971Z,4.13
2022-07-31T20:47:38.262Z,4.43
2022-07-31T20:52:34.518Z,4.53
2022-07-31T20:57:31.094Z,4.97
2022-07-31T21:02:27.354Z,4.60
2022-07-31T21:07:23.596Z,6.15
2022-07-31T21:12:19.846Z,5.15
2022-07-31T21:17:16.153Z,5.75
2022-07-31T21:22:12.409Z,5.28
2022-07-31T21:27:10.766Z,5.60
2022-07-31T21:32:07.826Z,6.68
2022-07-31T21:37:04.536Z,6.10
2022-07-31T21:42:03.346Z,6.20
2022-07-31T21:47:01.353Z,7.00
2022-07-31T21:52:00.376Z,7.03
2022-07-31T21:56:56.673Z,6.57
2022-07-31T22:01:57.968Z,6.45
2022-07-31T22:07:16.930Z,6.63
2022-07-31T22:12:13.276Z,7.68
2022-07-31T22:17:09.508Z,9.77
2022-07-31T22:22:09.641Z,9.43
2022-07-31T22:27:24.239Z,9.98
2022-07-31T22:32:20.511Z,10.18
2022-07-31T22:37:16.840Z,10.23
2022-07-31T22:42:13.203Z,9.88
2022-07-31T22:47:09.497Z,11.18
2022-07-31T22:52:07.268Z,13.32
2022-07-31T22:57:04.072Z,10.07
2022-07-31T23:02:04.526Z,10.57
2022-07-31T23:07:01.155Z,10.07
2022-07-31T23:11:57.807Z,9.25
2022-07-31T23:16:54.091Z,9.70
2022-07-31T23:21:50.372Z,10.75
2022-07-31T23:26:46.625Z,11.88
2022-07-31T23:31:42.898Z,11.00
2022-07-31T23:36:39.189Z,10.82
2022-07-31T23:41:54.123Z,11.52
2022-07-31T23:46:50.352Z,11.85
2022-07-31T23:51:46.718Z,9.60
2022-07-31T23:56:43.082Z,12.18
